createdAt,value
2023-01-09T00:00:03.428Z,3.47
2023-01-09T00:15:08.561Z,3.4
2023-01-09T00:30:01.655Z,3.48
2023-01-09T00:45:01.814Z,3.68
2023-01-09T01:00:02.824Z,3.69
2023-01-09T01:15:02.983Z,3.58
2023-01-09T01:30:01.653Z,3.72
2023-01-09T01:45:03.000Z,3.7
2023-01-09T02:00:01.521Z,3.71
2023-01-09T02:15:01.447Z,3.64
2023-01-09T02:30:01.718Z,3.52
2023-01-09T02:45:01.938Z,3.46
2023-01-09T03:00:03.035Z,3.52
2023-01-09T03:15:01.761Z,3.53
2023-01-09T03:30:02.938Z,3.55
2023-01-09T03:45:03.178Z,3.52
2023-01-09T04:00:01.462Z,3.48
2023-01-09T04:15:02.131Z,3.65
2023-01-09T04:30:01.398Z,3.74
2023-01-09T04:45:01.574Z,3.94
2023-01-09T05:00:01.863Z,4.63
2023-01-09T05:15:01.631Z,4.57
2023-01-09T05:30:01.793Z,4.71
2023-01-09T05:45:01.884Z,4.61
2023-01-09T06:00:02.223Z,4.52
2023-01-09T06:15:01.617Z,4.65
2023-01-09T06:30:01.616Z,4.65
2023-01-09T06:45:01.824Z,4.65
2023-01-09T07:00:03.178Z,4.65
2023-01-09T07:15:01.570Z,4.65
2023-01-09T07:30:01.993Z,4.65
2023-01-09T07:45:02.577Z,4.65
2023-01-09T08:00:02.705Z,4.65
2023-01-09T08:15:02.812Z,4.65
2023-01-09T08:30:02.072Z,4.65
2023-01-09T08:45:02.264Z,4.65
2023-01-09T09:00:03.177Z,4.65
2023-01-09T09:15:01.950Z,4.65
2023-01-09T09:30:02.928Z,4.65
2023-01-09T09:45:01.452Z,4.65
2023-01-09T10:00:01.741Z,4.65
2023-01-09T10:15:01.830Z,4.65
2023-01-09T10:30:02.171Z,4.65
2023-01-09T10:45:02.386Z,4.65
2023-01-09T11:00:01.656Z,4.65
2023-01-09T11:15:02.841Z,4.65
2023-01-09T11:30:03.072Z,4.65
2023-01-09T11:45:01.760Z,4.65
2023-01-09T12:00:02.518Z,4.65
2023-01-09T12:15:02.258Z,4.65
2023-01-09T12:30:02.791Z,4.65
2023-01-09T12:45:01.389Z,4.65
2023-01-09T13:00:01.724Z,4.65
2023-01-09T13:15:01.645Z,4.65
2023-01-09T13:30:01.961Z,4.65
2023-01-09T13:45:02.130Z,4.65
2023-01-09T14:00:02.058Z,4.65
2023-01-09T14:15:02.670Z,4.65
2023-01-09T14:30:01.863Z,4.65
2023-01-09T14:45:02.078Z,4.65
2023-01-09T15:00:02.356Z,4.65
2023-01-09T15:15:02.541Z,4.65
2023-01-09T15:30:01.455Z,4.65
2023-01-09T15:45:01.664Z,4.65
2023-01-09T16:00:01.963Z,4.65
2023-01-09T16:15:02.450Z,4.65
2023-01-09T16:30:01.837Z,4.65
2023-01-09T16:45:01.984Z,4.65
2023-01-09T17:00:02.206Z,4.65
2023-01-09T17:15:02.435Z,4.65
2023-01-09T17:30:05.442Z,4.65
2023-01-09T17:45:01.575Z,4.65
2023-01-09T18:00:01.935Z,4.65
2023-01-09T18:15:01.837Z,4.65
2023-01-09T18:30:05.104Z,4.65
2023-01-09T18:45:02.705Z,4.65
2023-01-09T19:00:01.431Z,4.65
2023-01-09T19:15:01.918Z,4.65
2023-01-09T19:30:02.190Z,4.65
2023-01-09T19:45:02.101Z,4.65
2023-01-09T20:00:02.668Z,4.65
2023-01-09T20:15:01.660Z,4.65
2023-01-09T20:30:02.016Z,4.65
2023-01-09T20:45:02.187Z,4.65
2023-01-09T21:00:02.616Z,4.65
2023-01-09T21:15:01.740Z,4.65
2023-01-09T21:30:02.015Z,4.65
2023-01-09T21:45:02.207Z,4.65
2023-01-09T22:00:01.935Z,4.65
2023-01-09T22:15:02.152Z,4.65
2023-01-09T22:30:02.844Z,4.65
2023-01-09T22:45:01.984Z,4.65
2023-01-09T23:00:02.255Z,4.65
2023-01-09T23:15:02.236Z,4.65
2023-01-09T23:30:02.020Z,4.65
2023-01-09T23:45:02.603Z,4.65
